Time,TemperatureF,DewpointF,PressureIn,WindDirection,WindDirectionDegrees,WindSpeedMPH,WindSpeedGustMPH,Humidity,HourlyPrecipIn,Conditions,Clouds,dailyrainin,SoftwareType,DateUTC
2013-06-24 00:00:00,81.8,78.6,30.06,North,32767,0.0,0.0,90,0.00,,,0.00,Wunderground v.1.15,2013-06-24 05:00:00,
2013-06-24 00:05:00,82.0,78.4,30.06,North,32767,0.0,0.0,89,0.00,,,0.00,Wunderground v.1.15,2013-06-24 05:05:00,
2013-06-24 00:10:00,82.1,78.9,30.07,North,32767,0.0,0.0,90,0.00,,,0.00,Wunderground v.1.15,2013-06-24 05:10:00,
2013-06-24 00:15:00,82.1,78.9,30.07,North,32767,0.0,0.0,90,0.00,,,0.00,Wunderground v.1.15,2013-06-24 05:15:00,
2013-06-24 00:20:00,81.9,78.7,30.07,North,32767,0.0,0.0,90,0.00,,,0.00,Wunderground v.1.15,2013-06-24 05:20:00,
2013-06-24 00:25:00,81.4,78.2,30.07,North,32767,0.0,0.0,90,0.00,,,0.00,Wunderground v.1.15,2013-06-24 05:25:00,
2013-06-24 00:30:00,80.7,77.8,30.06,North,32767,0.0,0.0,91,0.00,,,0.00,Wunderground v.1.15,2013-06-24 05:30:00,
2013-06-24 00:35:00,80.3,77.8,30.07,North,32767,0.0,0.0,92,0.00,,,0.00,Wunderground v.1.15,2013-06-24 05:35:00,
2013-06-24 00:40:00,80.0,77.5,30.07,North,32767,0.0,0.0,92,0.00,,,0.00,Wunderground v.1.15,2013-06-24 05:40:00,
2013-06-24 00:45:00,79.8,76.9,30.07,North,32767,0.0,0.0,91,0.00,,,0.00,Wunderground v.1.15,2013-06-24 05:45:00,
2013-06-24 00:50:00,79.8,77.3,30.07,North,32767,0.0,0.0,92,0.00,,,0.00,Wunderground v.1.15,2013-06-24 05:50:00,
2013-06-24 00:55:00,80.0,77.5,30.07,North,32767,0.0,0.0,92,0.00,,,0.00,Wunderground v.1.15,2013-06-24 05:55:00,
2013-06-24 01:00:00,80.1,77.6,30.07,North,32767,0.0,0.0,92,0.00,,,0.00,Wunderground v.1.15,2013-06-24 06:00:00,
2013-06-24 01:05:00,80.0,77.5,30.07,North,32767,0.0,0.0,92,0.00,,,0.00,Wunderground v.1.15,2013-06-24 06:05:00,
2013-06-24 01:15:00,79.8,77.3,30.07,North,32767,0.0,0.0,92,0.00,,,0.00,Wunderground v.1.15,2013-06-24 06:15:00,
2013-06-24 01:20:00,79.8,77.6,30.07,North,32767,0.0,0.0,93,0.00,,,0.00,Wunderground v.1.15,2013-06-24 06:20:00,
2013-06-24 01:25:00,79.8,77.6,30.07,North,32767,0.0,0.0,93,0.00,,,0.00,Wunderground v.1.15,2013-06-24 06:25:00,
2013-06-24 01:30:00,79.8,77.6,30.07,North,32767,0.0,0.0,93,0.00,,,0.00,Wunderground v.1.15,2013-06-24 06:30:00,
2013-06-24 01:35:00,79.8,77.6,30.07,North,32767,0.0,0.0,93,0.00,,,0.00,Wunderground v.1.15,2013-06-24 06:35:00,
2013-06-24 01:40:00,79.6,77.4,30.07,North,32767,0.0,0.0,93,0.00,,,0.00,Wunderground v.1.15,2013-06-24 06:40:00,
2013-06-24 01:45:00,79.6,77.4,30.07,North,32767,0.0,0.0,93,0.00,,,0.00,Wunderground v.1.15,2013-06-24 06:45:00,
2013-06-24 01:50:00,79.5,77.6,30.07,North,32767,0.0,0.0,94,0.00,,,0.00,Wunderground v.1.15,2013-06-24 06:50:00,
2013-06-24 02:00:00,79.1,76.6,30.07,North,32767,0.0,0.0,92,0.00,,,0.00,Wunderground v.1.15,2013-06-24 07:00:00,
2013-06-24 02:05:00,78.5,76.0,30.08,North,32767,0.0,0.0,92,0.28,,,0.05,Wunderground v.1.15,2013-06-24 07:05:00,
2013-06-24 02:15:00,76.6,74.7,30.08,North,32767,0.0,0.0,94,0.05,,,0.05,Wunderground v.1.15,2013-06-24 07:15:00,
2013-06-24 02:20:00,76.3,74.8,30.09,North,32767,0.0,0.0,95,0.04,,,0.05,Wunderground v.1.15,2013-06-24 07:20:00,
2013-06-24 02:25:00,75.8,74.3,30.09,North,32767,0.0,0.0,95,0.00,,,0.05,Wunderground v.1.15,2013-06-24 07:25:00,
2013-06-24 02:30:00,74.7,72.9,30.09,North,32767,0.0,0.0,94,0.00,,,0.05,Wunderground v.1.15,2013-06-24 07:30:00,
2013-06-24 02:40:00,73.7,72.2,30.09,North,32767,0.0,0.0,95,0.00,,,0.05,Wunderground v.1.15,2013-06-24 07:40:00,
2013-06-24 02:45:00,73.4,71.9,30.09,North,32767,0.0,0.0,95,0.00,,,0.05,Wunderground v.1.15,2013-06-24 07:45:00,
2013-06-24 02:50:00,73.3,72.1,30.09,North,32767,0.0,0.0,96,0.00,,,0.05,Wunderground v.1.15,2013-06-24 07:50:00,
2013-06-24 02:55:00,73.8,72.6,30.09,North,32767,0.0,0.0,96,0.00,,,0.05,Wunderground v.1.15,2013-06-24 07:55:00,
2013-06-24 03:00:00,74.3,73.1,30.08,North,32767,0.0,0.0,96,0.00,,,0.05,Wunderground v.1.15,2013-06-24 08:00:00,
2013-06-24 03:05:00,74.7,73.8,30.08,North,32767,0.0,0.0,97,0.00,,,0.05,Wunderground v.1.15,2013-06-24 08:05:00,
2013-06-24 03:10:00,74.9,74.0,30.09,North,32767,0.0,0.0,97,0.00,,,0.05,Wunderground v.1.15,2013-06-24 08:10:00,
2013-06-24 03:15:00,74.9,74.0,30.08,North,32767,0.0,0.0,97,0.00,,,0.05,Wunderground v.1.15,2013-06-24 08:15:00,
2013-06-24 03:20:00,75.0,74.1,30.08,North,32767,0.0,0.0,97,0.00,,,0.05,Wunderground v.1.15,2013-06-24 08:20:00,
2013-06-24 03:25:00,75.0,74.1,30.08,North,32767,0.0,0.0,97,0.00,,,0.05,Wunderground v.1.15,2013-06-24 08:25:00,
2013-06-24 03:30:00,75.2,74.3,30.07,North,32767,0.0,0.0,97,0.00,,,0.05,Wunderground v.1.15,2013-06-24 08:30:00,
2013-06-24 03:35:00,75.3,74.4,30.07,North,32767,0.0,0.0,97,0.00,,,0.05,Wunderground v.1.15,2013-06-24 08:35:00,
2013-06-24 03:45:00,75.5,74.6,30.07,North,32767,0.0,0.0,97,0.00,,,0.05,Wunderground v.1.15,2013-06-24 08:45:00,
2013-06-24 03:50:00,75.5,74.6,30.07,North,32767,0.0,0.0,97,0.00,,,0.05,Wunderground v.1.15,2013-06-24 08:50:00,
2013-06-24 03:55:00,75.6,74.7,30.08,North,32767,0.0,0.0,97,0.00,,,0.05,Wunderground v.1.15,2013-06-24 08:55:00,
2013-06-24 04:10:00,75.7,74.8,30.07,North,32767,0.0,0.0,97,0.00,,,0.05,Wunderground v.1.15,2013-06-24 09:10:00,
2013-06-24 04:20:00,75.7,74.8,30.08,North,32767,0.0,0.0,97,0.00,,,0.05,Wunderground v.1.15,2013-06-24 09:20:00,
2013-06-24 04:25:00,75.5,74.6,30.08,North,32767,0.0,0.0,97,0.00,,,0.05,Wunderground v.1.15,2013-06-24 09:25:00,
2013-06-24 04:30:00,75.4,74.5,30.09,North,32767,0.0,0.0,97,0.00,,,0.05,Wunderground v.1.15,2013-06-24 09:30:00,
2013-06-24 04:35:00,75.3,74.4,30.08,North,32767,0.0,0.0,97,0.00,,,0.05,Wunderground v.1.15,2013-06-24 09:35:00,
2013-06-24 04:40:00,75.4,74.5,30.08,North,32767,0.0,0.0,97,0.00,,,0.05,Wunderground v.1.15,2013-06-24 09:40:00,
2013-06-24 04:50:00,75.4,74.5,30.08,North,32767,0.0,0.0,97,0.00,,,0.05,Wunderground v.1.15,2013-06-24 09:50:00,
2013-06-24 04:55:00,75.2,74.3,30.08,North,32767,0.0,0.0,97,0.00,,,0.05,Wunderground v.1.15,2013-06-24 09:55:00,
2013-06-24 05:00:00,74.9,74.0,30.08,North,32767,0.0,0.0,97,0.00,,,0.05,Wunderground v.1.15,2013-06-24 10:00:00,
2013-06-24 05:05:00,74.3,73.4,30.08,North,32767,0.0,0.0,97,0.00,,,0.05,Wunderground v.1.15,2013-06-24 10:05:00,
2013-06-24 05:10:00,74.1,73.2,30.08,North,32767,0.0,0.0,97,0.00,,,0.05,Wunderground v.1.15,2013-06-24 10:10:00,
2013-06-24 05:15:00,74.1,73.2,30.08,North,32767,0.0,0.0,97,0.00,,,0.05,Wunderground v.1.15,2013-06-24 10:15:00,
2013-06-24 05:20:00,74.2,73.3,30.08,North,32767,0.0,0.0,97,0.00,,,0.05,Wunderground v.1.15,2013-06-24 10:20:00,
2013-06-24 05:25:00,74.3,73.4,30.08,North,32767,0.0,0.0,97,0.00,,,0.05,Wunderground v.1.15,2013-06-24 10:25:00,
2013-06-24 05:35:00,74.5,73.6,30.09,North,32767,0.0,0.0,97,0.00,,,0.05,Wunderground v.1.15,2013-06-24 10:35:00,
2013-06-24 05:40:00,74.6,73.7,30.09,North,32767,0.0,0.0,97,0.00,,,0.05,Wunderground v.1.15,2013-06-24 10:40:00,
2013-06-24 05:45:00,74.7,73.8,30.09,North,32767,0.0,0.0,97,0.00,,,0.05,Wunderground v.1.15,2013-06-24 10:45:00,
2013-06-24 05:50:00,74.8,73.9,30.09,North,32767,0.0,0.0,97,0.00,,,0.05,Wunderground v.1.15,2013-06-24 10:50:00,
2013-06-24 06:00:00,74.8,73.9,30.09,North,32767,0.0,0.0,97,0.00,,,0.05,Wunderground v.1.15,2013-06-24 11:00:00,
2013-06-24 06:05:00,74.9,74.0,30.09,North,32767,0.0,0.0,97,0.00,,,0.05,Wunderground v.1.15,2013-06-24 11:05:00,
2013-06-24 06:10:00,74.9,74.0,30.09,North,32767,0.0,0.0,97,0.00,,,0.05,Wunderground v.1.15,2013-06-24 11:10:00,
2013-06-24 06:20:00,74.9,74.0,30.10,North,32767,0.0,0.0,97,0.00,,,0.05,Wunderground v.1.15,2013-06-24 11:20:00,
2013-06-24 06:25:00,75.0,74.1,30.09,North,32767,0.0,0.0,97,0.00,,,0.05,Wunderground v.1.15,2013-06-24 11:25:00,
2013-06-24 06:30:00,75.2,74.3,30.09,North,32767,0.0,0.0,97,0.00,,,0.05,Wunderground v.1.15,2013-06-24 11:30:00,
2013-06-24 06:35:00,75.5,74.6,30.09,North,32767,0.0,0.0,97,0.00,,,0.05,Wunderground v.1.15,2013-06-24 11:35:00,
2013-06-24 06:40:00,76.1,75.5,30.10,North,32767,0.0,0.0,98,0.00,,,0.05,Wunderground v.1.15,2013-06-24 11:40:00,
2013-06-24 06:45:00,76.5,75.9,30.10,North,32767,0.0,0.0,98,0.00,,,0.05,Wunderground v.1.15,2013-06-24 11:45:00,
2013-06-24 06:50:00,77.0,76.4,30.10,North,32767,0.0,0.0,98,0.00,,,0.05,Wunderground v.1.15,2013-06-24 11:50:00,
2013-06-24 06:55:00,77.3,76.7,30.10,North,32767,0.0,0.0,98,0.00,,,0.05,Wunderground v.1.15,2013-06-24 11:55:00,
2013-06-24 07:00:00,77.4,76.8,30.10,North,32767,0.0,0.0,98,0.00,,,0.05,Wunderground v.1.15,2013-06-24 12:00:00,
2013-06-24 07:05:00,77.5,76.9,30.10,North,32767,0.0,0.0,98,0.00,,,0.05,Wunderground v.1.15,2013-06-24 12:05:00,
2013-06-24 07:10:00,77.6,76.7,30.10,North,32767,0.0,0.0,97,0.00,,,0.05,Wunderground v.1.15,2013-06-24 12:10:00,
2013-06-24 07:15:00,77.8,76.9,30.10,North,32767,0.0,0.0,97,0.00,,,0.05,Wunderground v.1.15,2013-06-24 12:15:00,
2013-06-24 07:20:00,78.0,77.1,30.10,North,32767,0.0,0.0,97,0.00,,,0.05,Wunderground v.1.15,2013-06-24 12:20:00,
2013-06-24 07:25:00,78.3,77.1,30.11,North,32767,0.0,0.0,96,0.00,,,0.05,Wunderground v.1.15,2013-06-24 12:25:00,
2013-06-24 07:30:00,78.5,77.3,30.11,North,32767,0.0,0.0,96,0.00,,,0.05,Wunderground v.1.15,2013-06-24 12:30:00,
2013-06-24 07:35:00,78.7,77.5,30.11,North,32767,0.0,0.0,96,0.00,,,0.05,Wunderground v.1.15,2013-06-24 12:35:00,
2013-06-24 07:40:00,78.9,77.7,30.11,North,32767,0.0,0.0,96,0.00,,,0.05,Wunderground v.1.15,2013-06-24 12:40:00,
2013-06-24 07:45:00,79.3,78.1,30.11,North,32767,0.0,0.0,96,0.00,,,0.05,Wunderground v.1.15,2013-06-24 12:45:00,
2013-06-24 07:50:00,79.6,78.0,30.12,North,32767,0.0,0.0,95,0.00,,,0.05,Wunderground v.1.15,2013-06-24 12:50:00,
2013-06-24 07:55:00,80.0,78.4,30.12,North,32767,0.0,0.0,95,0.00,,,0.05,Wunderground v.1.15,2013-06-24 12:55:00,
2013-06-24 08:00:00,80.4,78.8,30.12,North,32767,0.0,0.0,95,0.00,,,0.05,Wunderground v.1.15,2013-06-24 13:00:00,
2013-06-24 08:05:00,80.4,78.5,30.12,North,32767,0.0,0.0,94,0.00,,,0.05,Wunderground v.1.15,2013-06-24 13:05:00,
2013-06-24 08:10:00,80.3,78.1,30.12,North,32767,0.0,0.0,93,0.00,,,0.05,Wunderground v.1.15,2013-06-24 13:10:00,
2013-06-24 08:15:00,80.1,77.9,30.13,North,32767,0.0,0.0,93,0.00,,,0.05,Wunderground v.1.15,2013-06-24 13:15:00,
2013-06-24 08:20:00,80.0,78.1,30.13,North,32767,0.0,0.0,94,0.00,,,0.05,Wunderground v.1.15,2013-06-24 13:20:00,
2013-06-24 08:30:00,79.9,77.7,30.13,North,32767,0.0,0.0,93,0.00,,,0.05,Wunderground v.1.15,2013-06-24 13:30:00,
2013-06-24 08:35:00,80.0,77.8,30.13,North,32767,0.0,0.0,93,0.00,,,0.05,Wunderground v.1.15,2013-06-24 13:35:00,
2013-06-24 08:45:00,79.9,77.7,30.13,North,32767,0.0,0.0,93,0.00,,,0.05,Wunderground v.1.15,2013-06-24 13:45:00,
2013-06-24 08:50:00,79.8,77.6,30.14,North,32767,0.0,0.0,93,0.00,,,0.05,Wunderground v.1.15,2013-06-24 13:50:00,
2013-06-24 08:55:00,79.8,77.3,30.14,North,32767,0.0,0.0,92,0.00,,,0.05,Wunderground v.1.15,2013-06-24 13:55:00,
2013-06-24 09:00:00,79.8,77.6,30.14,North,32767,0.0,0.0,93,0.00,,,0.05,Wunderground v.1.15,2013-06-24 14:00:00,
2013-06-24 09:05:00,79.8,77.6,30.14,North,32767,0.0,0.0,93,0.00,,,0.05,Wunderground v.1.15,2013-06-24 14:05:00,
2013-06-24 09:10:00,79.7,77.2,30.14,North,32767,0.0,0.0,92,0.00,,,0.05,Wunderground v.1.15,2013-06-24 14:10:00,
2013-06-24 09:15:00,79.8,77.3,30.14,North,32767,0.0,0.0,92,0.00,,,0.05,Wunderground v.1.15,2013-06-24 14:15:00,
2013-06-24 09:20:00,79.8,77.3,30.14,North,32767,0.0,0.0,92,0.00,,,0.05,Wunderground v.1.15,2013-06-24 14:20:00,
2013-06-24 09:25:00,79.8,77.6,30.15,North,32767,0.0,0.0,93,0.00,,,0.05,Wunderground v.1.15,2013-06-24 14:25:00,
2013-06-24 09:30:00,79.6,77.1,30.14,North,32767,0.0,0.0,92,0.00,,,0.05,Wunderground v.1.15,2013-06-24 14:30:00,
2013-06-24 09:35:00,79.5,77.3,30.14,North,32767,0.0,0.0,93,0.00,,,0.05,Wunderground v.1.15,2013-06-24 14:35:00,
2013-06-24 09:40:00,79.5,77.0,30.14,North,32767,0.0,0.0,92,0.00,,,0.05,Wunderground v.1.15,2013-06-24 14:40:00,
2013-06-24 09:55:00,79.6,77.1,30.14,North,32767,0.0,0.0,92,0.00,,,0.05,Wunderground v.1.15,2013-06-24 14:55:00,
2013-06-24 10:00:00,79.8,77.3,30.14,North,32767,0.0,0.0,92,0.00,,,0.05,Wunderground v.1.15,2013-06-24 15:00:00,
2013-06-24 10:05:00,79.8,77.3,30.14,North,32767,0.0,0.0,92,0.00,,,0.05,Wunderground v.1.15,2013-06-24 15:05:00,
2013-06-24 10:10:00,79.9,77.0,30.14,North,32767,0.0,0.0,91,0.00,,,0.05,Wunderground v.1.15,2013-06-24 15:10:00,
2013-06-24 10:15:00,80.0,77.5,30.14,North,32767,0.0,0.0,92,0.00,,,0.05,Wunderground v.1.15,2013-06-24 15:15:00,
2013-06-24 10:20:00,80.1,77.2,30.14,North,32767,0.0,0.0,91,0.00,,,0.05,Wunderground v.1.15,2013-06-24 15:20:00,
2013-06-24 10:25:00,80.3,77.4,30.14,North,32767,0.0,0.0,91,0.00,,,0.05,Wunderground v.1.15,2013-06-24 15:25:00,
2013-06-24 10:30:00,80.4,77.5,30.14,North,32767,0.0,0.0,91,0.00,,,0.05,Wunderground v.1.15,2013-06-24 15:30:00,
2013-06-24 10:35:00,80.5,77.6,30.14,North,32767,0.0,0.0,91,0.00,,,0.05,Wunderground v.1.15,2013-06-24 15:35:00,
2013-06-24 10:40:00,80.6,77.7,30.14,North,32767,0.0,0.0,91,0.00,,,0.05,Wunderground v.1.15,2013-06-24 15:40:00,
2013-06-24 10:45:00,80.8,78.3,30.14,North,32767,0.0,0.0,92,0.00,,,0.05,Wunderground v.1.15,2013-06-24 15:45:00,
2013-06-24 10:50:00,80.8,77.9,30.14,North,32767,0.0,0.0,91,0.00,,,0.05,Wunderground v.1.15,2013-06-24 15:50:00,
2013-06-24 10:55:00,80.9,78.0,30.14,North,32767,0.0,0.0,91,0.00,,,0.05,Wunderground v.1.15,2013-06-24 15:55:00,
2013-06-24 11:00:00,81.1,78.2,30.14,North,32767,0.0,0.0,91,0.00,,,0.05,Wunderground v.1.15,2013-06-24 16:00:00,
2013-06-24 11:06:00,81.2,78.3,30.14,North,32767,0.0,0.0,91,0.00,,,0.05,Wunderground v.1.15,2013-06-24 16:06:00,
2013-06-24 11:15:00,81.5,78.6,30.14,North,32767,0.0,0.0,91,0.00,,,0.05,Wunderground v.1.15,2013-06-24 16:15:00,
2013-06-24 11:20:00,81.7,78.8,30.14,North,32767,0.0,0.0,91,0.00,,,0.05,Wunderground v.1.15,2013-06-24 16:20:00,
2013-06-24 11:25:00,81.9,79.0,30.14,North,32767,0.0,0.0,91,0.00,,,0.05,Wunderground v.1.15,2013-06-24 16:25:00,
2013-06-24 11:35:00,82.3,79.1,30.14,North,32767,0.0,0.0,90,0.00,,,0.05,Wunderground v.1.15,2013-06-24 16:35:00,
2013-06-24 11:40:00,82.5,79.3,30.14,North,32767,0.0,0.0,90,0.00,,,0.05,Wunderground v.1.15,2013-06-24 16:40:00,
2013-06-24 11:45:00,82.7,79.1,30.14,North,32767,0.0,0.0,89,0.00,,,0.05,Wunderground v.1.15,2013-06-24 16:45:00,
2013-06-24 11:50:00,82.9,79.3,30.14,North,32767,0.0,0.0,89,0.00,,,0.05,Wunderground v.1.15,2013-06-24 16:50:00,
2013-06-24 11:55:00,83.3,80.1,30.14,North,32767,0.0,0.0,90,0.00,,,0.05,Wunderground v.1.15,2013-06-24 16:55:00,
2013-06-24 12:00:00,83.6,79.7,30.14,North,32767,0.0,0.0,88,0.00,,,0.05,Wunderground v.1.15,2013-06-24 17:00:00,
2013-06-24 12:05:00,83.9,80.0,30.14,North,32767,0.0,0.0,88,0.00,,,0.05,Wunderground v.1.15,2013-06-24 17:05:00,
2013-06-24 12:10:00,84.1,80.5,30.14,North,32767,0.0,0.0,89,0.00,,,0.05,Wunderground v.1.15,2013-06-24 17:10:00,
2013-06-24 12:15:00,84.2,80.3,30.14,North,32767,0.0,0.0,88,0.00,,,0.05,Wunderground v.1.15,2013-06-24 17:15:00,
2013-06-24 12:20:00,84.1,79.8,30.13,North,32767,0.0,0.0,87,0.00,,,0.05,Wunderground v.1.15,2013-06-24 17:20:00,
2013-06-24 12:25:00,84.2,80.3,30.13,North,32767,0.0,0.0,88,0.00,,,0.05,Wunderground v.1.15,2013-06-24 17:25:00,
2013-06-24 12:30:00,84.5,80.9,30.13,North,32767,0.0,0.0,89,0.00,,,0.05,Wunderground v.1.15,2013-06-24 17:30:00,
2013-06-24 12:35:00,85.0,81.7,30.13,North,32767,0.0,0.0,90,0.00,,,0.05,Wunderground v.1.15,2013-06-24 17:35:00,
2013-06-24 12:40:00,85.5,81.9,30.13,North,32767,0.0,0.0,89,0.00,,,0.05,Wunderground v.1.15,2013-06-24 17:40:00,
2013-06-24 12:45:00,85.9,80.9,30.13,North,32767,0.0,0.0,85,0.00,,,0.05,Wunderground v.1.15,2013-06-24 17:45:00,
2013-06-24 12:50:00,86.3,80.9,30.13,North,32767,0.0,0.0,84,0.00,,,0.05,Wunderground v.1.15,2013-06-24 17:50:00,
2013-06-24 12:55:00,86.7,82.7,30.13,North,32767,0.0,0.0,88,0.00,,,0.05,Wunderground v.1.15,2013-06-24 17:55:00,
2013-06-24 13:05:00,87.0,82.3,30.13,North,32767,0.0,0.0,86,0.00,,,0.05,Wunderground v.1.15,2013-06-24 18:05:00,
2013-06-24 13:15:00,86.9,81.5,30.12,North,32767,0.0,0.0,84,0.00,,,0.05,Wunderground v.1.15,2013-06-24 18:15:00,
2013-06-24 13:25:00,86.5,80.7,30.12,North,32767,0.0,0.0,83,0.00,,,0.05,Wunderground v.1.15,2013-06-24 18:25:00,
2013-06-24 13:30:00,86.3,80.9,30.12,North,32767,0.0,0.0,84,0.00,,,0.05,Wunderground v.1.15,2013-06-24 18:30:00,
2013-06-24 13:35:00,86.2,80.8,30.11,North,32767,0.0,0.0,84,0.00,,,0.05,Wunderground v.1.15,2013-06-24 18:35:00,
2013-06-24 13:40:00,86.0,80.6,30.11,North,32767,0.0,0.0,84,0.00,,,0.05,Wunderground v.1.15,2013-06-24 18:40:00,
2013-06-24 13:45:00,85.9,80.9,30.11,North,32767,0.0,0.0,85,0.00,,,0.05,Wunderground v.1.15,2013-06-24 18:45:00,
2013-06-24 13:50:00,85.8,81.1,30.11,North,32767,0.0,0.0,86,0.00,,,0.05,Wunderground v.1.15,2013-06-24 18:50:00,
2013-06-24 13:55:00,86.1,81.4,30.11,North,32767,0.0,0.0,86,0.00,,,0.05,Wunderground v.1.15,2013-06-24 18:55:00,
2013-06-24 14:00:00,86.4,81.4,30.11,North,32767,0.0,0.0,85,0.00,,,0.05,Wunderground v.1.15,2013-06-24 19:00:00,
2013-06-24 14:05:00,86.6,81.2,30.11,North,32767,0.0,0.0,84,0.00,,,0.05,Wunderground v.1.15,2013-06-24 19:05:00,
2013-06-24 14:10:00,86.5,80.7,30.11,North,32767,0.0,0.0,83,0.00,,,0.05,Wunderground v.1.15,2013-06-24 19:10:00,
2013-06-24 14:15:00,86.6,80.8,30.11,North,32767,0.0,0.0,83,0.00,,,0.05,Wunderground v.1.15,2013-06-24 19:15:00,
2013-06-24 14:20:00,86.5,80.7,30.11,North,32767,0.0,0.0,83,0.00,,,0.05,Wunderground v.1.15,2013-06-24 19:20:00,
2013-06-24 14:25:00,86.4,80.6,30.11,North,32767,0.0,0.0,83,0.00,,,0.05,Wunderground v.1.15,2013-06-24 19:25:00,
2013-06-24 14:30:00,86.3,80.5,30.11,North,32767,0.0,0.0,83,0.00,,,0.05,Wunderground v.1.15,2013-06-24 19:30:00,
2013-06-24 14:35:00,86.3,80.9,30.11,North,32767,0.0,0.0,84,0.00,,,0.05,Wunderground v.1.15,2013-06-24 19:35:00,
2013-06-24 14:40:00,86.4,80.6,30.11,North,32767,0.0,0.0,83,0.00,,,0.05,Wunderground v.1.15,2013-06-24 19:40:00,
2013-06-24 14:45:00,86.5,81.1,30.10,North,32767,0.0,0.0,84,0.00,,,0.05,Wunderground v.1.15,2013-06-24 19:45:00,
2013-06-24 14:50:00,86.4,81.0,30.10,North,32767,0.0,0.0,84,0.00,,,0.05,Wunderground v.1.15,2013-06-24 19:50:00,
2013-06-24 14:55:00,86.4,81.4,30.10,North,32767,0.0,0.0,85,0.00,,,0.05,Wunderground v.1.15,2013-06-24 19:55:00,
2013-06-24 15:00:00,86.4,80.6,30.10,North,32767,0.0,0.0,83,0.00,,,0.05,Wunderground v.1.15,2013-06-24 20:00:00,
2013-06-24 15:05:00,86.6,81.2,30.10,North,32767,0.0,0.0,84,0.00,,,0.05,Wunderground v.1.15,2013-06-24 20:05:00,
2013-06-24 15:10:00,86.7,81.3,30.10,North,32767,0.0,0.0,84,0.00,,,0.05,Wunderground v.1.15,2013-06-24 20:10:00,
2013-06-24 15:15:00,86.7,80.5,30.10,North,32767,0.0,0.0,82,0.00,,,0.05,Wunderground v.1.15,2013-06-24 20:15:00,
2013-06-24 15:20:00,86.7,81.3,30.10,North,32767,0.0,0.0,84,0.00,,,0.05,Wunderground v.1.15,2013-06-24 20:20:00,
2013-06-24 15:25:00,86.8,81.4,30.10,North,32767,0.0,0.0,84,0.00,,,0.05,Wunderground v.1.15,2013-06-24 20:25:00,
2013-06-24 15:30:00,86.7,80.9,30.10,North,32767,0.0,0.0,83,0.00,,,0.05,Wunderground v.1.15,2013-06-24 20:30:00,
2013-06-24 15:35:00,86.6,80.4,30.09,North,32767,0.0,0.0,82,0.00,,,0.05,Wunderground v.1.15,2013-06-24 20:35:00,
2013-06-24 15:45:00,86.4,81.0,30.09,North,32767,0.0,0.0,84,0.00,,,0.05,Wunderground v.1.15,2013-06-24 20:45:00,
2013-06-24 15:50:00,86.4,80.6,30.09,North,32767,0.0,0.0,83,0.00,,,0.05,Wunderground v.1.15,2013-06-24 20:50:00,
2013-06-24 16:00:00,86.4,81.0,30.08,North,32767,0.0,0.0,84,0.00,,,0.05,Wunderground v.1.15,2013-06-24 21:00:00,
2013-06-24 16:05:00,86.3,80.5,30.08,North,32767,0.0,0.0,83,0.00,,,0.05,Wunderground v.1.15,2013-06-24 21:05:00,
2013-06-24 16:10:00,86.3,81.3,30.08,North,32767,0.0,0.0,85,0.00,,,0.05,Wunderground v.1.15,2013-06-24 21:10:00,
2013-06-24 16:15:00,86.0,80.2,30.08,North,32767,0.0,0.0,83,0.00,,,0.05,Wunderground v.1.15,2013-06-24 21:15:00,
2013-06-24 16:20:00,86.0,80.6,30.08,North,32767,0.0,0.0,84,0.00,,,0.05,Wunderground v.1.15,2013-06-24 21:20:00,
2013-06-24 16:25:00,86.0,80.6,30.07,North,32767,0.0,0.0,84,0.00,,,0.05,Wunderground v.1.15,2013-06-24 21:25:00,
2013-06-24 16:30:00,85.9,80.9,30.07,North,32767,0.0,0.0,85,0.00,,,0.05,Wunderground v.1.15,2013-06-24 21:30:00,
2013-06-24 16:35:00,85.8,80.0,30.07,North,32767,0.0,0.0,83,0.00,,,0.05,Wunderground v.1.15,2013-06-24 21:35:00,
2013-06-24 16:45:00,85.3,79.5,30.07,North,32767,0.0,0.0,83,0.00,,,0.05,Wunderground v.1.15,2013-06-24 21:45:00,
2013-06-24 16:55:00,85.1,80.4,30.07,North,32767,0.0,0.0,86,0.00,,,0.05,Wunderground v.1.15,2013-06-24 21:55:00,
2013-06-24 17:00:00,85.0,80.3,30.07,North,32767,0.0,0.0,86,0.00,,,0.05,Wunderground v.1.15,2013-06-24 22:00:00,
2013-06-24 17:05:00,84.9,79.9,30.06,North,32767,0.0,0.0,85,0.00,,,0.05,Wunderground v.1.15,2013-06-24 22:05:00,
2013-06-24 17:10:00,84.9,79.5,30.06,North,32767,0.0,0.0,84,0.00,,,0.05,Wunderground v.1.15,2013-06-24 22:10:00,
2013-06-24 17:15:00,85.0,80.3,30.06,North,32767,0.0,0.0,86,0.00,,,0.05,Wunderground v.1.15,2013-06-24 22:15:00,
2013-06-24 17:20:00,85.0,79.6,30.06,North,32767,0.0,0.0,84,0.00,,,0.05,Wunderground v.1.15,2013-06-24 22:20:00,
2013-06-24 17:25:00,85.0,80.0,30.05,North,32767,0.0,0.0,85,0.00,,,0.05,Wunderground v.1.15,2013-06-24 22:25:00,
2013-06-24 17:30:00,85.0,80.0,30.05,North,32767,0.0,0.0,85,0.00,,,0.05,Wunderground v.1.15,2013-06-24 22:30:00,
2013-06-24 17:35:00,84.9,80.2,30.05,North,32767,0.0,0.0,86,0.00,,,0.05,Wunderground v.1.15,2013-06-24 22:35:00,
2013-06-24 17:40:00,84.9,79.9,30.05,North,32767,0.0,0.0,85,0.00,,,0.05,Wunderground v.1.15,2013-06-24 22:40:00,
2013-06-24 17:45:00,84.8,79.8,30.05,North,32767,0.0,0.0,85,0.00,,,0.05,Wunderground v.1.15,2013-06-24 22:45:00,
2013-06-24 17:50:00,84.7,79.7,30.05,North,32767,0.0,0.0,85,0.00,,,0.05,Wunderground v.1.15,2013-06-24 22:50:00,
2013-06-24 17:55:00,84.7,79.7,30.05,North,32767,0.0,0.0,85,0.00,,,0.05,Wunderground v.1.15,2013-06-24 22:55:00,
2013-06-24 18:05:00,84.5,78.8,30.06,North,32767,0.0,0.0,83,0.00,,,0.05,Wunderground v.1.15,2013-06-24 23:05:00,
2013-06-24 18:10:00,84.5,78.4,30.06,North,32767,0.0,0.0,82,0.00,,,0.05,Wunderground v.1.15,2013-06-24 23:10:00,
2013-06-24 18:15:00,84.3,78.9,30.06,North,32767,0.0,0.0,84,0.00,,,0.05,Wunderground v.1.15,2013-06-24 23:15:00,
2013-06-24 18:20:00,84.2,78.8,30.06,North,32767,0.0,0.0,84,0.00,,,0.05,Wunderground v.1.15,2013-06-24 23:20:00,
2013-06-24 18:25:00,84.1,79.1,30.06,North,32767,0.0,0.0,85,0.00,,,0.05,Wunderground v.1.15,2013-06-24 23:25:00,
2013-06-24 18:30:00,84.0,79.4,30.06,North,32767,0.0,0.0,86,0.00,,,0.05,Wunderground v.1.15,2013-06-24 23:30:00,
2013-06-24 18:35:00,83.9,78.9,30.06,North,32767,0.0,0.0,85,0.00,,,0.05,Wunderground v.1.15,2013-06-24 23:35:00,
2013-06-24 18:40:00,83.8,78.4,30.06,North,32767,0.0,0.0,84,0.00,,,0.05,Wunderground v.1.15,2013-06-24 23:40:00,
2013-06-24 18:45:00,83.7,78.3,30.06,North,32767,0.0,0.0,84,0.00,,,0.05,Wunderground v.1.15,2013-06-24 23:45:00,
2013-06-24 18:50:00,83.6,78.6,30.06,North,32767,0.0,0.0,85,0.00,,,0.05,Wunderground v.1.15,2013-06-24 23:50:00,
2013-06-24 18:55:00,83.5,78.5,30.06,North,32767,0.0,0.0,85,0.00,,,0.05,Wunderground v.1.15,2013-06-24 23:55:00,
2013-06-24 19:00:00,83.4,78.4,30.07,North,32767,0.0,0.0,85,0.00,,,0.05,Wunderground v.1.15,2013-06-25 00:00:00,
2013-06-24 19:06:00,83.3,78.3,30.07,North,32767,0.0,0.0,85,0.00,,,0.05,Wunderground v.1.15,2013-06-25 00:06:00,
2013-06-24 19:10:00,83.2,78.2,30.07,North,32767,0.0,0.0,85,0.00,,,0.05,Wunderground v.1.15,2013-06-25 00:10:00,
2013-06-24 19:20:00,83.1,78.5,30.07,North,32767,0.0,0.0,86,0.00,,,0.05,Wunderground v.1.15,2013-06-25 00:20:00,
2013-06-24 19:25:00,83.0,78.4,30.07,North,32767,0.0,0.0,86,0.00,,,0.05,Wunderground v.1.15,2013-06-25 00:25:00,
2013-06-24 19:30:00,82.9,78.3,30.07,North,32767,0.0,0.0,86,0.00,,,0.05,Wunderground v.1.15,2013-06-25 00:30:00,
2013-06-24 19:35:00,82.8,78.2,30.07,North,32767,0.0,0.0,86,0.00,,,0.05,Wunderground v.1.15,2013-06-25 00:35:00,
2013-06-24 19:40:00,82.7,78.1,30.07,North,32767,0.0,0.0,86,0.00,,,0.05,Wunderground v.1.15,2013-06-25 00:40:00,
2013-06-24 19:45:00,82.6,78.0,30.07,North,32767,0.0,0.0,86,0.00,,,0.05,Wunderground v.1.15,2013-06-25 00:45:00,
2013-06-24 19:50:00,82.5,77.9,30.06,North,32767,0.0,0.0,86,0.00,,,0.05,Wunderground v.1.15,2013-06-25 00:50:00,
2013-06-24 19:55:00,82.4,77.8,30.06,North,32767,0.0,0.0,86,0.00,,,0.05,Wunderground v.1.15,2013-06-25 00:55:00,
2013-06-24 20:00:00,82.3,77.7,30.06,North,32767,0.0,0.0,86,0.00,,,0.05,Wunderground v.1.15,2013-06-25 01:00:00,
2013-06-24 20:05:00,82.3,77.7,30.06,North,32767,0.0,0.0,86,0.00,,,0.05,Wunderground v.1.15,2013-06-25 01:05:00,
2013-06-24 20:10:00,82.2,77.6,30.06,North,32767,0.0,0.0,86,0.00,,,0.05,Wunderground v.1.15,2013-06-25 01:10:00,
2013-06-24 20:15:00,82.2,77.6,30.06,North,32767,0.0,0.0,86,0.00,,,0.05,Wunderground v.1.15,2013-06-25 01:15:00,
2013-06-24 20:20:00,82.2,77.9,30.06,North,32767,0.0,0.0,87,0.00,,,0.05,Wunderground v.1.15,2013-06-25 01:20:00,
2013-06-24 20:25:00,82.2,77.9,30.06,North,32767,0.0,0.0,87,0.00,,,0.05,Wunderground v.1.15,2013-06-25 01:25:00,
2013-06-24 20:40:00,82.0,77.7,30.07,North,32767,0.0,0.0,87,0.00,,,0.05,Wunderground v.1.15,2013-06-25 01:40:00,
2013-06-24 20:45:00,82.0,77.7,30.07,North,32767,0.0,0.0,87,0.00,,,0.05,Wunderground v.1.15,2013-06-25 01:45:00,
2013-06-24 20:50:00,82.0,77.4,30.07,North,32767,0.0,0.0,86,0.00,,,0.05,Wunderground v.1.15,2013-06-25 01:50:00,
2013-06-24 20:55:00,81.9,77.3,30.07,North,32767,0.0,0.0,86,0.00,,,0.05,Wunderground v.1.15,2013-06-25 01:55:00,
2013-06-24 21:00:00,81.8,77.2,30.07,North,32767,0.0,0.0,86,0.00,,,0.05,Wunderground v.1.15,2013-06-25 02:00:00,
2013-06-24 21:05:00,81.8,77.5,30.08,North,32767,0.0,0.0,87,0.00,,,0.05,Wunderground v.1.15,2013-06-25 02:05:00,
2013-06-24 21:10:00,81.7,77.5,30.08,North,32767,0.0,0.0,87,0.00,,,0.05,Wunderground v.1.15,2013-06-25 02:10:00,
2013-06-24 21:15:00,81.6,77.7,30.08,North,32767,0.0,0.0,88,0.00,,,0.05,Wunderground v.1.15,2013-06-25 02:15:00,
2013-06-24 21:20:00,81.5,77.6,30.08,North,32767,0.0,0.0,88,0.00,,,0.05,Wunderground v.1.15,2013-06-25 02:20:00,
2013-06-24 21:25:00,81.4,77.5,30.08,North,32767,0.0,0.0,88,0.00,,,0.05,Wunderground v.1.15,2013-06-25 02:25:00,
2013-06-24 21:30:00,81.3,77.1,30.08,North,32767,0.0,0.0,87,0.00,,,0.05,Wunderground v.1.15,2013-06-25 02:30:00,
2013-06-24 21:35:00,81.3,77.1,30.08,North,32767,0.0,0.0,87,0.00,,,0.05,Wunderground v.1.15,2013-06-25 02:35:00,
2013-06-24 21:40:00,81.4,77.5,30.09,North,32767,0.0,0.0,88,0.00,,,0.05,Wunderground v.1.15,2013-06-25 02:40:00,
2013-06-24 21:45:00,81.4,77.5,30.09,North,32767,0.0,0.0,88,0.00,,,0.05,Wunderground v.1.15,2013-06-25 02:45:00,
2013-06-24 21:50:00,81.4,77.5,30.09,North,32767,0.0,0.0,88,0.00,,,0.05,Wunderground v.1.15,2013-06-25 02:50:00,
2013-06-24 21:55:00,81.4,77.5,30.09,North,32767,0.0,0.0,88,0.00,,,0.05,Wunderground v.1.15,2013-06-25 02:55:00,
2013-06-24 22:05:00,81.2,77.3,30.09,North,32767,0.0,0.0,88,0.00,,,0.05,Wunderground v.1.15,2013-06-25 03:05:00,
2013-06-24 22:10:00,81.0,77.4,30.10,North,32767,0.0,0.0,89,0.00,,,0.05,Wunderground v.1.15,2013-06-25 03:10:00,
2013-06-24 22:20:00,80.7,77.2,30.10,North,32767,0.0,0.0,89,0.00,,,0.05,Wunderground v.1.15,2013-06-25 03:20:00,
2013-06-24 22:25:00,80.6,77.1,30.10,North,32767,0.0,0.0,89,0.00,,,0.05,Wunderground v.1.15,2013-06-25 03:25:00,
2013-06-24 22:35:00,80.3,77.1,30.10,North,32767,0.0,0.0,90,0.00,,,0.05,Wunderground v.1.15,2013-06-25 03:35:00,
2013-06-24 22:45:00,80.1,76.9,30.09,North,32767,0.0,0.0,90,0.00,,,0.05,Wunderground v.1.15,2013-06-25 03:45:00,
2013-06-24 22:50:00,80.2,77.0,30.09,North,32767,0.0,0.0,90,0.00,,,0.05,Wunderground v.1.15,2013-06-25 03:50:00,
2013-06-24 22:55:00,80.2,77.3,30.09,North,32767,0.0,0.0,91,0.00,,,0.05,Wunderground v.1.15,2013-06-25 03:55:00,
2013-06-24 23:00:00,80.1,77.2,30.09,North,32767,0.0,0.0,91,0.00,,,0.05,Wunderground v.1.15,2013-06-25 04:00:00,
2013-06-24 23:05:00,79.9,77.0,30.10,North,32767,0.0,0.0,91,0.00,,,0.05,Wunderground v.1.15,2013-06-25 04:05:00,
2013-06-24 23:10:00,79.8,76.9,30.10,North,32767,0.0,0.0,91,0.00,,,0.05,Wunderground v.1.15,2013-06-25 04:10:00,
2013-06-24 23:15:00,79.6,77.1,30.10,North,32767,0.0,0.0,92,0.00,,,0.05,Wunderground v.1.15,2013-06-25 04:15:00,
2013-06-24 23:20:00,79.4,76.9,30.10,North,32767,0.0,0.0,92,0.00,,,0.05,Wunderground v.1.15,2013-06-25 04:20:00,
2013-06-24 23:25:00,79.2,76.7,30.10,North,32767,0.0,0.0,92,0.00,,,0.05,Wunderground v.1.15,2013-06-25 04:25:00,
2013-06-24 23:30:00,79.0,76.5,30.10,North,32767,0.0,0.0,92,0.00,,,0.05,Wunderground v.1.15,2013-06-25 04:30:00,
2013-06-24 23:35:00,78.8,76.3,30.10,North,32767,0.0,0.0,92,0.00,,,0.05,Wunderground v.1.15,2013-06-25 04:35:00,
2013-06-24 23:40:00,78.6,76.4,30.10,North,32767,0.0,0.0,93,0.00,,,0.05,Wunderground v.1.15,2013-06-25 04:40:00,
2013-06-24 23:45:00,78.5,76.3,30.10,North,32767,0.0,0.0,93,0.00,,,0.05,Wunderground v.1.15,2013-06-25 04:45:00,
2013-06-24 23:50:00,78.4,76.2,30.10,North,32767,0.0,0.0,93,0.00,,,0.05,Wunderground v.1.15,2013-06-25 04:50:00,
2013-06-24 23:55:00,78.5,76.3,30.10,North,32767,0.0,0.0,93,0.00,,,0.05,Wunderground v.1.15,2013-06-25 04:55:00,